createdAt,value
2022-09-06T00:01:15.236Z,154589.06
2022-09-06T00:03:43.329Z,154587.72
2022-09-06T00:06:14.557Z,154591.66
2022-09-06T00:08:44.119Z,154592.94
2022-09-06T00:11:12.594Z,154591.66
2022-09-06T00:13:41.172Z,154621.50
2022-09-06T00:16:10.961Z,154660.44
2022-09-06T00:18:40.311Z,154690.34
2022-09-06T00:21:16.218Z,154729.34
2022-09-06T00:23:44.205Z,154754.06
2022-09-06T00:26:12.397Z,154760.53
2022-09-06T00:28:40.613Z,154776.13
2022-09-06T00:31:13.042Z,154761.81
2022-09-06T00:33:42.439Z,154781.31
2022-09-06T00:36:11.034Z,154763.16
2022-09-06T00:38:39.403Z,154739.78
2022-09-06T00:41:08.627Z,154734.56
2022-09-06T00:43:36.478Z,154708.53
2022-09-06T00:46:05.838Z,154705.94
2022-09-06T00:48:34.432Z,154708.53
2022-09-06T00:51:07.008Z,154687.75
2022-09-06T00:53:35.130Z,154685.16
2022-09-06T00:56:03.429Z,154690.34
2022-09-06T00:58:31.254Z,154669.59
2022-09-06T01:00:59.196Z,154655.31
2022-09-06T01:03:27.523Z,154661.78
2022-09-06T01:06:12.334Z,154652.69
2022-09-06T01:08:55.441Z,154635.81
2022-09-06T01:11:49.014Z,154664.38
2022-09-06T01:14:27.724Z,154695.50
2022-09-06T01:17:04.047Z,154881.34
2022-09-06T01:19:57.150Z,154895.63
2022-09-06T01:22:46.503Z,154907.34
2022-09-06T01:25:34.181Z,154894.38
2022-09-06T01:28:29.141Z,154908.66
2022-09-06T01:31:06.239Z,154903.44
2022-09-06T01:33:42.014Z,154934.66
2022-09-06T01:36:15.458Z,154921.63
2022-09-06T01:38:43.370Z,154952.84
2022-09-06T01:41:11.923Z,155073.75
2022-09-06T01:43:43.689Z,155102.34
2022-09-06T01:46:18.631Z,155085.44
2022-09-06T01:49:00.226Z,155119.25
2022-09-06T01:51:32.440Z,155142.66
2022-09-06T01:54:20.044Z,155136.16
2022-09-06T01:57:00.712Z,155138.78
2022-09-06T01:59:41.866Z,155107.56
2022-09-06T02:02:17.623Z,155086.75
2022-09-06T02:04:48.745Z,155099.75
2022-09-06T02:07:21.742Z,155052.94
2022-09-06T02:09:56.675Z,155067.25
2022-09-06T02:12:27.732Z,155068.56
2022-09-06T02:15:01.066Z,155069.84
2022-09-06T02:17:32.850Z,155059.44
2022-09-06T02:20:03.823Z,155045.13
2022-09-06T02:22:35.748Z,155039.97
2022-09-06T02:25:08.336Z,155013.97
2022-09-06T02:27:37.672Z,155020.47
2022-09-06T02:30:08.190Z,154971.06
2022-09-06T02:32:44.220Z,154994.47
2022-09-06T02:35:15.901Z,154976.28
2022-09-06T02:37:44.762Z,154968.47
2022-09-06T02:40:13.407Z,154909.94
2022-09-06T02:42:42.307Z,154924.22
2022-09-06T02:45:11.912Z,154872.25
2022-09-06T02:47:39.684Z,154865.75
2022-09-06T02:50:09.065Z,154820.28
2022-09-06T02:52:36.800Z,154787.81
2022-09-06T02:55:05.243Z,154767.03
2022-09-06T02:57:33.040Z,154724.16
2022-09-06T03:00:00.924Z,154744.91
2022-09-06T03:02:30.183Z,154705.94
2022-09-06T03:04:58.039Z,154730.63
2022-09-06T03:07:25.973Z,154695.50
2022-09-06T03:09:53.750Z,154754.06
2022-09-06T03:12:21.595Z,154724.16
2022-09-06T03:14:53.041Z,154744.91
2022-09-06T03:17:22.594Z,154739.78
2022-09-06T03:19:51.674Z,154734.56
2022-09-06T03:22:19.426Z,154724.16
2022-09-06T03:24:47.131Z,154708.53
2022-09-06T03:27:14.927Z,154672.13
2022-09-06T03:29:42.629Z,154624.13
2022-09-06T03:32:10.434Z,154630.59
2022-09-06T03:34:38.387Z,154629.31
2022-09-06T03:37:07.993Z,154637.09
2022-09-06T03:39:35.822Z,154641.00
2022-09-06T03:42:03.825Z,154625.41
2022-09-06T03:44:31.646Z,154661.78
2022-09-06T03:46:59.653Z,154613.72
2022-09-06T03:49:27.490Z,154596.88
2022-09-06T03:51:55.360Z,154594.25
2022-09-06T03:54:24.789Z,154602.03
2022-09-06T03:56:52.686Z,154639.69
2022-09-06T03:59:20.525Z,154615.03
2022-09-06T04:01:48.437Z,154599.41
2022-09-06T04:04:16.257Z,154608.56
2022-09-06T04:06:43.973Z,154576.06
2022-09-06T04:09:11.742Z,154604.63
2022-09-06T04:11:43.786Z,154643.63
2022-09-06T04:14:12.762Z,154646.16
2022-09-06T04:16:40.690Z,154685.16
2022-09-06T04:19:08.575Z,154641.00
2022-09-06T04:21:36.348Z,154641.00
2022-09-06T04:24:04.435Z,154676.06
2022-09-06T04:26:32.351Z,154650.09
2022-09-06T04:29:01.608Z,154659.19
2022-09-06T04:31:29.508Z,154655.31
2022-09-06T04:33:57.335Z,154661.78
2022-09-06T04:36:25.051Z,154620.25
2022-09-06T04:38:52.987Z,154635.81
2022-09-06T04:41:21.132Z,154643.63
2022-09-06T04:43:49.115Z,154655.31
2022-09-06T04:46:22.298Z,154651.38
2022-09-06T04:48:50.730Z,154656.56
2022-09-06T04:51:18.611Z,154648.75
2022-09-06T04:53:46.918Z,154672.13
2022-09-06T04:56:17.043Z,154663.06
2022-09-06T04:58:45.204Z,154651.38
2022-09-06T05:01:13.544Z,154674.75
2022-09-06T05:03:42.968Z,154673.47
2022-09-06T05:06:12.508Z,154668.25
2022-09-06T05:08:41.427Z,154661.78
2022-09-06T05:11:10.814Z,154661.78
2022-09-06T05:13:39.056Z,154644.88
2022-09-06T05:16:08.635Z,154643.63
2022-09-06T05:18:37.051Z,154641.00
2022-09-06T05:21:07.616Z,154624.13
2022-09-06T05:23:35.482Z,154620.25
2022-09-06T05:26:03.692Z,154630.59
2022-09-06T05:28:31.606Z,154620.25
2022-09-06T05:31:09.692Z,154631.94
2022-09-06T05:33:38.128Z,154661.78
2022-09-06T05:36:08.541Z,154661.78
2022-09-06T05:38:36.313Z,154668.25
2022-09-06T05:41:04.067Z,154681.28
2022-09-06T05:43:31.775Z,154686.44
2022-09-06T05:45:59.586Z,154692.97
2022-09-06T05:48:27.543Z,154703.31
2022-09-06T05:51:01.512Z,154702.06
2022-09-06T05:53:35.003Z,154698.13
2022-09-06T05:56:03.071Z,154725.47
2022-09-06T05:58:30.906Z,154704.66
2022-09-06T06:01:07.188Z,154751.47
2022-09-06T06:03:35.039Z,154768.31
2022-09-06T06:06:02.908Z,154786.53
2022-09-06T06:08:30.736Z,154799.50
2022-09-06T06:11:01.408Z,154803.38
2022-09-06T06:13:34.705Z,154807.31
2022-09-06T06:16:03.507Z,154828.09
2022-09-06T06:18:31.335Z,154877.47
2022-09-06T06:21:12.464Z,154950.22
2022-09-06T06:23:41.159Z,154997.06
2022-09-06T06:26:11.128Z,155050.34
2022-09-06T06:28:39.513Z,155102.34
2022-09-06T06:31:08.939Z,155147.88
2022-09-06T06:33:37.922Z,155205.09
2022-09-06T06:36:07.905Z,155276.66
2022-09-06T06:38:37.463Z,155332.56
2022-09-06T06:41:07.187Z,155374.19
2022-09-06T06:43:38.014Z,155415.91
2022-09-06T06:46:06.387Z,155467.97
2022-09-06T06:48:34.215Z,155513.47
2022-09-06T06:51:02.230Z,155555.09
2022-09-06T06:53:30.236Z,155608.50
2022-09-06T06:55:57.959Z,155647.59
2022-09-06T06:58:25.968Z,155673.63
2022-09-06T07:00:55.339Z,155741.31
2022-09-06T07:03:23.236Z,155710.09
2022-09-06T07:08:39.059Z,155805.13
2022-09-06T07:11:07.996Z,155866.38
2022-09-06T07:13:35.855Z,155912.00
2022-09-06T07:16:13.430Z,155970.59
2022-09-06T07:18:42.243Z,155988.81
2022-09-06T07:24:07.919Z,156067.06
2022-09-06T07:26:37.589Z,156094.41
2022-09-06T07:29:07.060Z,156100.91
2022-09-06T07:34:26.176Z,156168.72
2022-09-06T07:36:55.270Z,156249.53
2022-09-06T07:39:23.346Z,156237.81
2022-09-06T07:41:51.271Z,156283.47
2022-09-06T07:44:19.110Z,156352.56
2022-09-06T07:46:48.281Z,156403.41
2022-09-06T07:49:16.157Z,156408.69
2022-09-06T07:51:43.873Z,156497.34
2022-09-06T07:54:30.338Z,156352.56
2022-09-06T07:56:58.803Z,156424.31
2022-09-06T07:59:27.562Z,156481.72
2022-09-06T08:01:56.927Z,156563.88
2022-09-06T08:04:24.875Z,156512.97
2022-09-06T08:09:41.202Z,156562.56
2022-09-06T08:12:09.819Z,156586.09
2022-09-06T08:14:37.685Z,156537.78
2022-09-06T08:17:07.328Z,156601.78
2022-09-06T08:19:35.679Z,156703.53
2022-09-06T08:22:03.612Z,156703.53
2022-09-06T08:24:32.863Z,156644.84
2022-09-06T08:27:00.649Z,156553.44
2022-09-06T08:29:28.513Z,156582.13
2022-09-06T08:31:56.493Z,156544.31
2022-09-06T08:34:25.815Z,156655.25
2022-09-06T08:36:53.687Z,156757.03
2022-09-06T08:39:21.896Z,156805.34
2022-09-06T08:41:54.352Z,156852.38
2022-09-06T08:47:14.778Z,157007.78
2022-09-06T08:49:46.232Z,156862.78
2022-09-06T08:55:51.301Z,157057.38
2022-09-06T08:58:38.273Z,157011.66
2022-09-06T09:01:12.496Z,157108.34
2022-09-06T09:03:43.409Z,157131.84
2022-09-06T09:06:12.881Z,157122.72
2022-09-06T09:08:48.989Z,157220.66
2022-09-06T09:11:19.054Z,157144.91
2022-09-06T09:13:56.040Z,157052.16
2022-09-06T09:16:24.850Z,156866.69
2022-09-06T09:18:55.489Z,156949.03
2022-09-06T09:21:30.380Z,157065.19
2022-09-06T09:24:03.040Z,156945.06
2022-09-06T09:26:36.751Z,156985.56
2022-09-06T09:29:07.756Z,157024.72
2022-09-06T09:31:38.328Z,157129.25
2022-09-06T09:34:06.769Z,157199.75
2022-09-06T09:36:36.468Z,157120.09
2022-09-06T09:39:10.451Z,157257.25
2022-09-06T09:41:41.502Z,157229.78
2022-09-06T09:44:12.273Z,157389.25
2022-09-06T09:46:41.979Z,157441.59
2022-09-06T09:49:12.290Z,157223.28
2022-09-06T09:51:43.141Z,157144.91
2022-09-06T09:54:13.213Z,157288.69
2022-09-06T09:56:51.627Z,157462.50
2022-09-06T09:59:25.742Z,157453.34
2022-09-06T10:01:56.055Z,157424.59
2022-09-06T10:04:46.690Z,157615.47
2022-09-06T10:07:18.837Z,157547.44
2022-09-06T10:09:48.705Z,157686.06
2022-09-06T10:12:28.986Z,157509.53
2022-09-06T10:14:57.764Z,157688.69
2022-09-06T10:17:31.786Z,157696.53
2022-09-06T10:20:03.518Z,157733.19
2022-09-06T10:22:36.539Z,157790.72
2022-09-06T10:25:44.046Z,157803.78
2022-09-06T10:28:34.427Z,157618.09
2022-09-06T10:31:32.032Z,157487.31
2022-09-06T10:34:07.340Z,157323.94
2022-09-06T10:36:37.395Z,157513.44
2022-09-06T10:39:22.100Z,157484.72
2022-09-06T10:42:01.475Z,157642.94
2022-09-06T10:44:42.417Z,157509.53
2022-09-06T10:47:12.624Z,157432.44
2022-09-06T10:49:44.177Z,157628.56
2022-09-06T10:52:18.760Z,157755.44
2022-09-06T10:54:47.995Z,157764.56
2022-09-06T11:00:14.321Z,157758.06
2022-09-06T11:02:48.694Z,157557.88
2022-09-06T11:11:03.737Z,157858.72
2022-09-06T11:13:32.381Z,157934.66
2022-09-06T11:16:07.992Z,158007.91
2022-09-06T11:18:40.880Z,158036.75
2022-09-06T11:21:36.157Z,157572.25
2022-09-06T11:24:13.274Z,157653.38
2022-09-06T11:26:46.443Z,157909.81
2022-09-06T11:29:23.947Z,157900.63
2022-09-06T11:34:45.741Z,158028.84
2022-09-06T11:37:27.027Z,157708.31
2022-09-06T11:43:18.545Z,157933.38
2022-09-06T11:45:49.592Z,158044.63
2022-09-06T11:48:34.982Z,158066.84
2022-09-06T11:51:07.668Z,157895.44
2022-09-06T11:53:56.028Z,158010.53
2022-09-06T11:56:32.526Z,158168.91
2022-09-06T11:59:08.301Z,157815.56
2022-09-06T12:01:41.140Z,157939.91
2022-09-06T12:04:12.227Z,157973.88
2022-09-06T12:06:43.896Z,158070.75
2022-09-06T12:09:32.732Z,158297.25
2022-09-06T12:12:02.406Z,158309.03
2022-09-06T12:14:39.647Z,158379.75
2022-09-06T12:17:28.652Z,158360.13
2022-09-06T12:20:05.774Z,158282.84
2022-09-06T12:22:55.540Z,158309.03
2022-09-06T12:25:57.014Z,158396.78
2022-09-06T12:28:29.315Z,158274.97
2022-09-06T12:30:58.674Z,158214.78
2022-09-06T12:33:31.083Z,158369.28
2022-09-06T12:36:13.912Z,158464.91
2022-09-06T12:38:41.740Z,158176.84
2022-09-06T12:41:09.623Z,158354.88
2022-09-06T12:43:40.236Z,158223.94
2022-09-06T12:46:09.547Z,158405.94
2022-09-06T12:48:41.283Z,158429.53
2022-09-06T12:51:16.315Z,158495.03
2022-09-06T12:53:51.971Z,158331.31
2022-09-06T12:56:21.881Z,158357.50
2022-09-06T12:58:49.738Z,158209.53
2022-09-06T13:01:24.532Z,158303.78
2022-09-06T13:04:00.218Z,158255.31
2022-09-06T13:06:29.081Z,158026.22
2022-09-06T13:08:59.443Z,157781.59
2022-09-06T13:11:30.805Z,157967.34
2022-09-06T13:13:59.109Z,158221.31
2022-09-06T13:16:31.115Z,158223.94
2022-09-06T13:19:12.500Z,158311.66
2022-09-06T13:21:42.296Z,158031.50
2022-09-06T13:24:19.929Z,158200.38
2022-09-06T13:26:48.047Z,158206.91
2022-09-06T13:29:27.301Z,157987.00
2022-09-06T13:31:58.400Z,158073.38
2022-09-06T13:34:28.149Z,158108.69
2022-09-06T13:37:01.023Z,158345.72
2022-09-06T13:39:33.736Z,158446.56
2022-09-06T13:42:04.169Z,158458.38
2022-09-06T13:44:33.692Z,158578.88
2022-09-06T13:47:03.264Z,158527.75
2022-09-06T13:49:31.609Z,158362.72
2022-09-06T13:52:02.052Z,158225.22
2022-09-06T13:54:30.841Z,158044.63
2022-09-06T13:56:58.732Z,157896.72
2022-09-06T13:59:26.691Z,157752.81
2022-09-06T14:02:02.042Z,157522.59
2022-09-06T14:04:32.438Z,157725.31
2022-09-06T14:07:00.291Z,157858.72
2022-09-06T14:09:28.119Z,158036.75
2022-09-06T14:11:56.466Z,158077.31
2022-09-06T14:14:24.677Z,158133.59
2022-09-06T14:16:52.894Z,158197.75
2022-09-06T14:19:20.777Z,158265.81
2022-09-06T14:21:49.968Z,158322.16
2022-09-06T14:24:17.827Z,158340.47
2022-09-06T14:26:45.673Z,158386.31
2022-09-06T14:29:13.407Z,158098.25
2022-09-06T14:31:41.536Z,158186.00
2022-09-06T14:34:09.200Z,158154.50
2022-09-06T14:36:36.835Z,158233.09
2022-09-06T14:39:06.100Z,158144.03
2022-09-06T14:41:34.140Z,158032.78
2022-09-06T14:44:02.002Z,158199.06
2022-09-06T14:46:30.692Z,158151.88
2022-09-06T14:49:00.145Z,158256.66
2022-09-06T14:51:28.140Z,158199.06
2022-09-06T14:53:59.159Z,158243.53
2022-09-06T14:56:28.483Z,158162.38
2022-09-06T14:58:57.502Z,158163.66
2022-09-06T15:01:31.980Z,157918.97
2022-09-06T15:04:04.551Z,158034.13
2022-09-06T15:06:34.723Z,158069.47
2022-09-06T15:09:02.751Z,158086.47
2022-09-06T15:11:34.474Z,158018.41
2022-09-06T15:14:04.024Z,158047.19
2022-09-06T15:16:33.497Z,158062.94
2022-09-06T15:19:02.929Z,158010.53
2022-09-06T15:21:32.067Z,157960.81
2022-09-06T15:24:01.989Z,157946.44
2022-09-06T15:26:30.550Z,158026.22
2022-09-06T15:28:59.704Z,158020.97
2022-09-06T15:31:27.573Z,157922.88
2022-09-06T15:33:55.619Z,157925.50
2022-09-06T15:36:24.089Z,157903.25
2022-09-06T15:38:54.231Z,157839.09
2022-09-06T15:41:24.075Z,157898.06
2022-09-06T15:43:56.664Z,157920.25
2022-09-06T15:46:44.050Z,157899.34
2022-09-06T15:49:13.947Z,157814.28
2022-09-06T15:51:43.028Z,157769.81
2022-09-06T15:54:13.002Z,157782.88
2022-09-06T15:56:40.028Z,157759.34
2022-09-06T15:59:07.900Z,157746.28
2022-09-06T16:01:37.637Z,157734.50
2022-09-06T16:04:07.055Z,157725.31
2022-09-06T16:06:37.627Z,157688.69
2022-09-06T16:09:08.101Z,157691.31
2022-09-06T16:11:37.011Z,157641.63
2022-09-06T16:14:06.236Z,157503.03
2022-09-06T16:16:37.464Z,157508.25
2022-09-06T16:19:05.547Z,157539.59
2022-09-06T16:21:35.635Z,157559.22
2022-09-06T16:24:05.775Z,157552.69
2022-09-06T16:26:36.176Z,157526.53
2022-09-06T16:29:05.986Z,157412.78
2022-09-06T16:31:39.823Z,157423.31
2022-09-06T16:34:10.093Z,157353.97
2022-09-06T16:36:38.272Z,157382.75
2022-09-06T16:39:06.910Z,157369.66
2022-09-06T16:41:39.047Z,157322.63
2022-09-06T16:44:07.404Z,157357.88
2022-09-06T16:46:35.366Z,157351.38
2022-09-06T16:49:04.492Z,157309.56
2022-09-06T16:51:33.856Z,157240.25
2022-09-06T16:54:02.075Z,157237.66
2022-09-06T16:56:33.510Z,157233.75
2022-09-06T16:59:03.135Z,157197.16
2022-09-06T17:01:32.324Z,157177.59
2022-09-06T17:04:01.783Z,157174.97
2022-09-06T17:06:30.361Z,157160.59
2022-09-06T17:09:00.148Z,157122.72
2022-09-06T17:11:29.503Z,157080.91
2022-09-06T17:13:58.386Z,157037.78
2022-09-06T17:16:44.097Z,156992.06
2022-09-06T17:19:13.537Z,156945.06
2022-09-06T17:21:41.825Z,156915.00
2022-09-06T17:24:11.645Z,156907.16
2022-09-06T17:26:40.353Z,156832.78
2022-09-06T17:29:08.596Z,156766.22
2022-09-06T17:31:36.922Z,156738.78
2022-09-06T17:34:04.950Z,156734.81
2022-09-06T17:36:33.653Z,156661.75
2022-09-06T17:39:03.559Z,156640.88
2022-09-06T17:41:37.696Z,156580.84
2022-09-06T17:44:06.033Z,156557.38
2022-09-06T17:46:34.246Z,156485.63
2022-09-06T17:49:02.084Z,156432.16
2022-09-06T17:51:29.958Z,156365.59
2022-09-06T17:53:57.965Z,156351.25
2022-09-06T17:56:26.443Z,156296.47
2022-09-06T17:58:57.327Z,156250.88
2022-09-06T18:01:26.615Z,156211.69
2022-09-06T18:03:54.607Z,156162.16
2022-09-06T18:06:24.584Z,156149.16
2022-09-06T18:08:54.275Z,156119.19
2022-09-06T18:11:24.654Z,156081.41
2022-09-06T18:13:58.855Z,156048.84
2022-09-06T18:16:27.889Z,156027.94
2022-09-06T18:18:59.112Z,156007.06
2022-09-06T18:21:29.087Z,155945.81
2022-09-06T18:23:57.826Z,155900.25
2022-09-06T18:26:26.424Z,155889.81
2022-09-06T18:28:54.747Z,155893.72
2022-09-06T18:31:25.780Z,155883.31
2022-09-06T18:33:56.323Z,155876.81
2022-09-06T18:36:26.592Z,155835.13
2022-09-06T18:38:56.992Z,155776.47
2022-09-06T18:41:42.121Z,155751.75
2022-09-06T18:44:10.041Z,155738.69
2022-09-06T18:46:39.300Z,155663.19
2022-09-06T18:49:07.358Z,155667.13
2022-09-06T18:51:35.457Z,155659.28
2022-09-06T18:54:03.626Z,155578.53
2022-09-06T18:56:31.601Z,155621.50
2022-09-06T18:59:00.561Z,155595.44
2022-09-06T19:01:30.297Z,155581.13
2022-09-06T19:04:01.002Z,155559.03
2022-09-06T19:06:30.973Z,155566.81
2022-09-06T19:09:00.107Z,155551.22
2022-09-06T19:11:28.369Z,155533.00
2022-09-06T19:13:57.623Z,155522.56
2022-09-06T19:16:27.308Z,155479.66
2022-09-06T19:18:56.868Z,155474.44
2022-09-06T19:21:27.494Z,155438.00
2022-09-06T19:23:57.551Z,155417.19
2022-09-06T19:26:26.839Z,155392.44
2022-09-06T19:28:56.735Z,155382.00
2022-09-06T19:31:27.144Z,155372.91
2022-09-06T19:33:56.288Z,155350.78
2022-09-06T19:36:27.666Z,155340.41
2022-09-06T19:39:03.728Z,155332.56
2022-09-06T19:41:34.737Z,155331.28
2022-09-06T19:44:05.410Z,155316.97
2022-09-06T19:46:33.577Z,155280.53
2022-09-06T19:49:02.248Z,155296.19
2022-09-06T19:51:33.081Z,155276.66
2022-09-06T19:54:01.035Z,155266.22
2022-09-06T19:56:33.239Z,155228.50
2022-09-06T19:59:03.293Z,155267.56
2022-09-06T20:01:32.784Z,155272.75
2022-09-06T20:04:02.655Z,155254.53
2022-09-06T20:06:33.169Z,155224.63
2022-09-06T20:09:02.600Z,155257.13
2022-09-06T20:11:32.881Z,155218.13
2022-09-06T20:14:01.636Z,155237.66
2022-09-06T20:16:30.440Z,155223.34
2022-09-06T20:18:59.982Z,155215.53
2022-09-06T20:21:28.654Z,155196.00
2022-09-06T20:23:59.380Z,155211.63
2022-09-06T20:26:30.358Z,155207.72
2022-09-06T20:28:59.637Z,155209.03
2022-09-06T20:31:28.820Z,155205.09
2022-09-06T20:33:57.674Z,155224.63
2022-09-06T20:36:25.866Z,155244.16
2022-09-06T20:38:54.141Z,155246.75
2022-09-06T20:41:25.225Z,155250.63
2022-09-06T20:43:54.780Z,155264.94
2022-09-06T20:46:25.245Z,155315.66
2022-09-06T20:48:53.445Z,155402.81
2022-09-06T20:51:23.499Z,155404.16
2022-09-06T20:53:53.898Z,155441.94
2022-09-06T20:56:24.443Z,155452.31
2022-09-06T20:58:53.895Z,155471.84
2022-09-06T21:01:26.513Z,155475.72
2022-09-06T21:03:55.996Z,155438.00
2022-09-06T21:06:25.595Z,155444.53
2022-09-06T21:08:54.007Z,155422.41
2022-09-06T21:11:23.697Z,155396.31
2022-09-06T21:13:53.036Z,155371.63
2022-09-06T21:16:24.629Z,155358.59
2022-09-06T21:18:53.294Z,155336.47
2022-09-06T21:21:22.198Z,155329.97
2022-09-06T21:23:50.614Z,155293.56
2022-09-06T21:26:19.047Z,155296.19
2022-09-06T21:28:49.422Z,155290.97
2022-09-06T21:31:19.681Z,155264.94
2022-09-06T21:33:48.700Z,155245.44
2022-09-06T21:36:19.177Z,155219.41
2022-09-06T21:38:48.661Z,155209.03
2022-09-06T21:41:18.765Z,155209.03
2022-09-06T21:43:52.460Z,155194.72
2022-09-06T21:46:22.099Z,155188.25
2022-09-06T21:48:51.482Z,155216.81
2022-09-06T21:51:22.302Z,155251.91
2022-09-06T21:53:51.996Z,155306.56
2022-09-06T21:56:20.612Z,155397.59
2022-09-06T21:58:53.071Z,155436.72
2022-09-06T22:01:21.539Z,155471.84
2022-09-06T22:03:49.444Z,155500.47
2022-09-06T22:06:20.019Z,155497.88
2022-09-06T22:08:48.340Z,155504.38
2022-09-06T22:11:17.921Z,155512.19
2022-09-06T22:13:46.835Z,155517.41
2022-09-06T22:16:19.048Z,155531.69
2022-09-06T22:18:48.773Z,155569.41
2022-09-06T22:21:20.207Z,155595.44
2022-09-06T22:23:51.976Z,155613.72
2022-09-06T22:26:20.767Z,155629.38
2022-09-06T22:28:49.517Z,155626.75
2022-09-06T22:31:18.759Z,155659.28
2022-09-06T22:33:46.635Z,155628.03
2022-09-06T22:36:14.519Z,155628.03
2022-09-06T22:38:42.561Z,155618.88
2022-09-06T22:41:10.588Z,155652.81
2022-09-06T22:43:38.456Z,155660.63
2022-09-06T22:46:08.457Z,155677.50
2022-09-06T22:48:38.272Z,155681.44
2022-09-06T22:51:07.195Z,155669.72
2022-09-06T22:53:35.473Z,155655.41
2022-09-06T22:56:04.213Z,155633.25
2022-09-06T22:58:32.202Z,155660.63
2022-09-06T23:01:07.754Z,155665.78
2022-09-06T23:03:37.893Z,155663.19
2022-09-06T23:06:06.229Z,155644.97
2022-09-06T23:08:36.279Z,155654.09
2022-09-06T23:11:09.356Z,155650.19
2022-09-06T23:13:37.259Z,155607.16
2022-09-06T23:16:06.379Z,155622.81
2022-09-06T23:18:34.784Z,155603.28
2022-09-06T23:21:08.551Z,155572.03
2022-09-06T23:23:36.939Z,155561.66
2022-09-06T23:26:06.175Z,155557.72
2022-09-06T23:28:34.043Z,155556.44
2022-09-06T23:31:03.901Z,155543.38
2022-09-06T23:33:32.030Z,155518.69
2022-09-06T23:35:59.855Z,155492.66
2022-09-06T23:38:29.660Z,155478.34
2022-09-06T23:40:57.593Z,155460.13
2022-09-06T23:43:25.501Z,155384.63
2022-09-06T23:45:53.379Z,155409.31
2022-09-06T23:48:21.280Z,155391.09
2022-09-06T23:50:49.063Z,155484.84
2022-09-06T23:53:18.771Z,155548.59
2022-09-06T23:55:48.094Z,155457.53
2022-09-06T23:58:16.001Z,155408.03
